• Join FlightAware (Why Join?)
  • Login
  • US Flag 
09:23PM EDT


 

Airport Tracker/Info


-or-


 

Live Flight TrackerFlight Track Log ✈ SKW5550 ✈ 18-Aug-2013 ✈ KCOD - KDEN

Flight Track Log - Related Links

Times and Time Zones

All times are in EDT time to prevent confusion due to time zone crossing. See the SKW5550 flight status page for this flight to view local times or setup timezone preferences in your user account.

Time Position Orientation Groundspeed Altitude Reporting Facility
EDT Latitude Longitude Course Direction KTS MPH feet Rate Location/Type
07:59AM 44.5511 -108.9781 157° South 218 251 6,100  Level Salt Lake Center
08:00AM 44.6164 -108.9697 North 248 285 8,200 2,160 Climbing Salt Lake Center
08:01AM 44.1311 -108.6730 159° South  Level FlightAware Approximate
08:01AM 44.6417 -108.8856 67° East 270 311 10,500  Level Salt Lake Center
08:02AM 44.0323 -108.6190 159° South  Level FlightAware Approximate
08:02AM 44.5622 -108.8561 165° South 295 339 11,700  Level Salt Lake Center
08:03AM 43.9338 -108.5641 157° South  Level FlightAware Approximate
08:03AM 44.4819 -108.7853 148° Southeast 332 382 14,000  Level Salt Lake Center
08:04AM 43.8359 -108.5070 157° South  Level FlightAware Approximate
08:04AM 44.3975 -108.7128 148° Southeast 353 406 15,200  Level Salt Lake Center
08:05AM 44.3083 -108.6350 148° Southeast 371 427 16,400 1,200 Climbing Salt Lake Center
08:06AM 44.2161 -108.5547 148° Southeast 386 444 17,700 1,200 Climbing Salt Lake Center
08:07AM 44.1231 -108.4728 148° Southeast 394 453 18,900 1,200 Climbing Salt Lake Center
08:08AM 44.0297 -108.3900 147° Southeast 398 458 20,200 1,260 Climbing Salt Lake Center
08:09AM 43.9369 -108.3092 148° Southeast 397 457 21,500 1,200 Climbing Salt Lake Center
08:10AM 43.8433 -108.2286 148° Southeast 397 457 22,700 1,020 Climbing Salt Lake Center
08:11AM 43.7481 -108.1456 148° Southeast 405 466 23,600 840 Climbing Salt Lake Center
08:12AM 43.6506 -108.0611 148° Southeast 413 475 24,500 900 Climbing Salt Lake Center
08:13AM 43.5536 -107.9772 148° Southeast 414 476 25,400 900 Climbing Salt Lake Center
08:14AM 43.4550 -107.8917 148° Southeast 419 482 26,300 840 Climbing Salt Lake Center
08:15AM 43.3567 -107.8086 148° Southeast 417 480 27,200 840 Climbing Salt Lake Center
08:16AM 43.2586 -107.7244 148° Southeast 417 480 28,100 900 Climbing Salt Lake Center
08:17AM 43.1603 -107.6419 149° Southeast 416 479 29,000 840 Climbing Salt Lake Center
08:18AM 43.0622 -107.5592 148° Southeast 414 476 29,900 840 Climbing Salt Lake Center
08:19AM 42.9436 -107.4594 148° Southeast 418 481 30,800 540 Climbing Salt Lake Center
08:20AM 42.8486 -107.3781 148° Southeast 420 483 31,000 60 Climbing Salt Lake Center
08:21AM 42.7469 -107.2928 148° Southeast 438 504 31,000  Level Salt Lake Center
08:22AM 42.6428 -107.2058 148° Southeast 452 520 31,000  Level Salt Lake Center
08:23AM 42.5178 -107.1036 149° Southeast 463 533 31,000  Level Salt Lake Center
08:24AM 42.4106 -107.0131 148° Southeast 470 541 31,000  Level Salt Lake Center
08:25AM 42.3000 -106.9239 149° Southeast 477 549 31,000  Level Salt Lake Center
08:26AM 42.1722 -106.8186 149° Southeast 482 555 31,000  Level Denver Center
08:27AM 42.0631 -106.7306 149° Southeast 479 551 31,000  Level Denver Center
08:28AM 41.9506 -106.6406 149° Southeast 486 559 31,000  Level Denver Center
08:29AM 41.8236 -106.5369 149° Southeast 479 551 31,000  Level Denver Center
08:30AM 41.7147 -106.4503 149° Southeast 483 556 31,000  Level Denver Center
08:31AM 41.6053 -106.3636 149° Southeast 480 552 31,000  Level Denver Center
08:32AM 41.4783 -106.2619 149° Southeast 478 550 31,000  Level Denver Center
08:33AM 41.3592 -106.2025 159° South 479 551 31,000  Level Denver Center
08:34AM 41.2389 -106.1508 162° South 474 545 31,000 -540 Level Denver Center
08:35AM 41.0986 -106.0886 162° South 479 551 30,000 -1,200 Descending Denver Center
08:36AM 40.9800 -106.0211 157° South 487 560 28,600 -1,620 Descending Denver Center
08:37AM 40.8722 -105.9328 148° Southeast 465 535 26,800 -1,800 Descending Denver Center
08:38AM 40.8000 -105.7981 125° Southeast 453 521 25,000 -1,800 Descending Denver Center
08:39AM 40.7342 -105.6769 126° Southeast 415 478 23,200 -1,620 Descending Denver Center
08:40AM 40.6708 -105.5606 126° Southeast 395 455 21,800 -1,380 Descending Denver Center
08:41AM 40.6064 -105.4481 127° Southeast 386 444 20,400 -1,380 Descending Denver Center
08:42AM 40.5433 -105.3306 125° Southeast 393 452 19,100 -1,380 Descending Denver Center
08:43AM 40.4728 -105.2119 128° Southeast 389 448 17,700 -1,200 Descending Denver Center
08:44AM 40.4075 -105.1056 129° Southeast 375 432 16,700 -1,980 Descending Denver Center
08:45AM 40.3450 -105.0006 128° Southeast 366 421 13,800 -2,160 Descending Denver Center
08:46AM 40.3058 -104.8872 114° Southeast 338 389 12,400 -1,500 Descending Denver Center
08:47AM 40.2336 -104.8281 148° Southeast 303 349 10,800 -1,500 Descending Denver Center
08:48AM 40.1572 -104.7781 153° Southeast 286 329 9,400 -1,380 Descending Denver Center
08:49AM 40.0897 -104.7353 154° Southeast 272 313 8,100 -1,020 Descending Denver Center
08:50AM 40.0261 -104.7000 157° South 252 290 7,400 -720 Descending Denver Center
08:51AM 39.9636 -104.6939 176° South 228 262 6,700 -840 Descending Denver Center
08:52AM 39.9150 -104.6956 182° South 174 200 5,800 -720 Descending Denver Center
08:53AM 39.8742 -104.6964 181° South 148 170 5,300 -540 Descending Denver Center